Terminal Aerodrome Forecast
Issued by NWS Paducah, KY

Home | Current Version | Previous Version | Graphics & Text | Print | Product List | Glossary On
Versions: 1 2 3 4 5 6 7 8 9 10 11 12 13 14 15 16 17
000
FTUS43 KPAH 281120
TAFPAH
TAF
KPAH 281120Z 2812/2912 00000KT 5SM BR SCT250
     FM281800 25006KT P6SM VCTS SCT040CB BKN100
     FM290000 00000KT P6SM SCT250
      TEMPO 2908/2912 4SM BR=

USA.gov is the U.S. government's official web portal to all federal, state and local government web resources and services.